sensor_id;sensor_type;location;lat;lon;timestamp;pressure;altitude;pressure_sealevel;temperature;humidity
75006;BME280;63553;51.814;4.600;2023-03-14T00:02:21;99016.53;;;15.36;69.89
75006;BME280;63553;51.814;4.600;2023-03-14T00:04:47;99014.53;;;15.33;69.93
75006;BME280;63553;51.814;4.600;2023-03-14T00:07:12;99013.72;;;15.36;69.78
75006;BME280;63553;51.814;4.600;2023-03-14T00:09:38;99019.31;;;15.36;69.95
75006;BME280;63553;51.814;4.600;2023-03-14T00:12:04;99021.34;;;15.32;70.03
75006;BME280;63553;51.814;4.600;2023-03-14T00:14:31;99026.16;;;15.35;69.86
75006;BME280;63553;51.814;4.600;2023-03-14T00:16:56;99021.31;;;15.35;69.89
75006;BME280;63553;51.814;4.600;2023-03-14T00:19:22;99021.72;;;15.34;69.92
75006;BME280;63553;51.814;4.600;2023-03-14T00:21:47;99007.34;;;15.32;69.59
75006;BME280;63553;51.814;4.600;2023-03-14T00:24:12;99009.34;;;15.35;70.04
75006;BME280;63553;51.814;4.600;2023-03-14T00:26:38;99010.53;;;15.34;69.90
75006;BME280;63553;51.814;4.600;2023-03-14T00:29:03;99016.94;;;15.34;69.91
75006;BME280;63553;51.814;4.600;2023-03-14T00:31:29;99013.34;;;15.34;69.93
75006;BME280;63553;51.814;4.600;2023-03-14T00:33:54;99024.13;;;15.32;69.91
75006;BME280;63553;51.814;4.600;2023-03-14T00:36:20;99043.31;;;15.33;69.93
75006;BME280;63553;51.814;4.600;2023-03-14T00:38:48;99036.91;;;15.33;69.94
75006;BME280;63553;51.814;4.600;2023-03-14T00:41:16;99051.72;;;15.33;69.72
75006;BME280;63553;51.814;4.600;2023-03-14T00:43:42;99044.53;;;15.29;69.87
75006;BME280;63553;51.814;4.600;2023-03-14T00:46:08;99054.13;;;15.31;70.01
75006;BME280;63553;51.814;4.600;2023-03-14T00:48:34;99054.94;;;15.32;69.96
75006;BME280;63553;51.814;4.600;2023-03-14T00:51:00;99052.13;;;15.32;69.64
75006;BME280;63553;51.814;4.600;2023-03-14T00:53:26;99051.34;;;15.31;69.91
75006;BME280;63553;51.814;4.600;2023-03-14T00:55:51;99045.31;;;15.29;69.66
75006;BME280;63553;51.814;4.600;2023-03-14T00:58:17;99044.13;;;15.30;69.94
75006;BME280;63553;51.814;4.600;2023-03-14T01:00:44;99037.72;;;15.30;69.69
75006;BME280;63553;51.814;4.600;2023-03-14T01:03:10;99021.34;;;15.32;69.88
75006;BME280;63553;51.814;4.600;2023-03-14T01:05:36;99027.31;;;15.30;70.03
75006;BME280;63553;51.814;4.600;2023-03-14T01:08:02;99032.53;;;15.32;69.33
75006;BME280;63553;51.814;4.600;2023-03-14T01:10:27;99028.91;;;15.24;69.88
75006;BME280;63553;51.814;4.600;2023-03-14T01:12:53;99041.72;;;15.29;69.72
75006;BME280;63553;51.814;4.600;2023-03-14T01:15:18;99048.53;;;15.28;69.84
75006;BME280;63553;51.814;4.600;2023-03-14T01:17:44;99040.50;;;15.26;69.66
75006;BME280;63553;51.814;4.600;2023-03-14T01:20:12;99046.09;;;15.26;69.77
75006;BME280;63553;51.814;4.600;2023-03-14T01:22:38;99050.13;;;15.25;69.72
75006;BME280;63553;51.814;4.600;2023-03-14T01:25:09;99047.31;;;15.25;69.54
75006;BME280;63553;51.814;4.600;2023-03-14T01:27:35;99051.72;;;15.23;69.94
75006;BME280;63553;51.814;4.600;2023-03-14T01:30:00;99050.09;;;15.22;69.82
75006;BME280;63553;51.814;4.600;2023-03-14T01:32:26;99044.94;;;15.20;70.06
75006;BME280;63553;51.814;4.600;2023-03-14T01:34:51;99032.91;;;15.20;69.99
75006;BME280;63553;51.814;4.600;2023-03-14T01:37:17;99029.31;;;15.19;69.97
75006;BME280;63553;51.814;4.600;2023-03-14T01:39:43;99030.50;;;15.18;70.09
75006;BME280;63553;51.814;4.600;2023-03-14T01:42:08;99017.72;;;15.14;70.14
75006;BME280;63553;51.814;4.600;2023-03-14T01:47:18;99022.91;;;15.19;69.80
75006;BME280;63553;51.814;4.600;2023-03-14T01:49:46;99012.50;;;15.16;69.52
75006;BME280;63553;51.814;4.600;2023-03-14T01:52:16;99022.91;;;15.19;70.00
75006;BME280;63553;51.814;4.600;2023-03-14T01:55:06;99009.69;;;15.16;69.94
75006;BME280;63553;51.814;4.600;2023-03-14T01:57:36;99002.50;;;15.15;69.98
75006;BME280;63553;51.814;4.600;2023-03-14T02:00:22;99008.09;;;15.15;69.97
75006;BME280;63553;51.814;4.600;2023-03-14T02:03:05;99002.50;;;15.15;70.11
75006;BME280;63553;51.814;4.600;2023-03-14T02:05:34;98996.50;;;15.13;70.00
75006;BME280;63553;51.814;4.600;2023-03-14T02:08:02;98994.09;;;15.15;69.90
75006;BME280;63553;51.814;4.600;2023-03-14T02:10:32;98988.91;;;15.13;70.01
75006;BME280;63553;51.814;4.600;2023-03-14T02:13:00;98988.91;;;15.13;69.65
75006;BME280;63553;51.814;4.600;2023-03-14T02:15:26;98993.31;;;15.11;70.24
75006;BME280;63553;51.814;4.600;2023-03-14T02:17:52;98998.09;;;15.10;69.95
75006;BME280;63553;51.814;4.600;2023-03-14T02:20:26;98991.31;;;15.11;69.96
75006;BME280;63553;51.814;4.600;2023-03-14T02:22:54;98980.09;;;15.08;70.10
75006;BME280;63553;51.814;4.600;2023-03-14T02:27:51;98980.09;;;15.08;70.45
75006;BME280;63553;51.814;4.600;2023-03-14T02:30:23;98972.91;;;15.07;70.09
75006;BME280;63553;51.814;4.600;2023-03-14T02:33:10;98976.50;;;15.07;69.99
75006;BME280;63553;51.814;4.600;2023-03-14T02:35:41;98973.69;;;15.07;70.19
75006;BME280;63553;51.814;4.600;2023-03-14T02:38:15;98970.09;;;15.07;70.18
75006;BME280;63553;51.814;4.600;2023-03-14T02:40:44;98960.91;;;15.06;70.13
75006;BME280;63553;51.814;4.600;2023-03-14T02:43:10;98954.50;;;15.06;70.44
75006;BME280;63553;51.814;4.600;2023-03-14T02:45:39;98956.09;;;15.07;70.25
75006;BME280;63553;51.814;4.600;2023-03-14T02:48:15;98950.50;;;15.07;70.10
75006;BME280;63553;51.814;4.600;2023-03-14T02:50:42;98959.72;;;15.07;70.06
75006;BME280;63553;51.814;4.600;2023-03-14T02:53:08;98951.31;;;15.07;69.94
75006;BME280;63553;51.814;4.600;2023-03-14T02:55:34;98953.72;;;15.05;70.19
75006;BME280;63553;51.814;4.600;2023-03-14T02:57:59;98950.50;;;15.07;70.02
75006;BME280;63553;51.814;4.600;2023-03-14T03:00:25;98955.28;;;15.06;69.93
75006;BME280;63553;51.814;4.600;2023-03-14T03:02:50;98946.50;;;15.04;70.13
75006;BME280;63553;51.814;4.600;2023-03-14T03:05:15;98940.91;;;15.04;70.08
75006;BME280;63553;51.814;4.600;2023-03-14T03:07:41;98946.91;;;15.06;70.22
75006;BME280;63553;51.814;4.600;2023-03-14T03:10:06;98944.91;;;15.07;70.13
75006;BME280;63553;51.814;4.600;2023-03-14T03:12:32;98936.13;;;15.05;69.98
75006;BME280;63553;51.814;4.600;2023-03-14T03:14:57;98937.69;;;15.06;70.06
75006;BME280;63553;51.814;4.600;2023-03-14T03:17:22;98940.91;;;15.15;70.74
75006;BME280;63553;51.814;4.600;2023-03-14T03:19:48;98934.94;;;15.20;71.47
75006;BME280;63553;51.814;4.600;2023-03-14T03:22:13;98928.13;;;15.28;72.10
75006;BME280;63553;51.814;4.600;2023-03-14T03:24:38;98930.13;;;15.34;72.37
75006;BME280;63553;51.814;4.600;2023-03-14T03:27:04;98933.72;;;15.42;72.73
75006;BME280;63553;51.814;4.600;2023-03-14T03:29:29;98930.13;;;15.45;72.62
75006;BME280;63553;51.814;4.600;2023-03-14T03:31:55;98925.72;;;15.44;72.26
75006;BME280;63553;51.814;4.600;2023-03-14T03:34:20;98932.91;;;15.41;72.16
75006;BME280;63553;51.814;4.600;2023-03-14T03:36:46;98935.72;;;15.34;71.85
75006;BME280;63553;51.814;4.600;2023-03-14T03:39:11;98943.31;;;15.30;72.17
75006;BME280;63553;51.814;4.600;2023-03-14T03:41:36;98940.94;;;15.25;72.20
75006;BME280;63553;51.814;4.600;2023-03-14T03:44:02;98945.34;;;15.23;72.04
75006;BME280;63553;51.814;4.600;2023-03-14T03:46:27;98946.50;;;15.18;72.02
75006;BME280;63553;51.814;4.600;2023-03-14T03:48:57;98940.13;;;15.11;72.07
75006;BME280;63553;51.814;4.600;2023-03-14T03:51:23;98930.91;;;15.07;72.08
75006;BME280;63553;51.814;4.600;2023-03-14T03:53:49;98936.50;;;15.03;72.09
75006;BME280;63553;51.814;4.600;2023-03-14T03:56:14;98941.69;;;15.01;71.83
75006;BME280;63553;51.814;4.600;2023-03-14T03:58:39;98935.28;;;14.97;71.70
75006;BME280;63553;51.814;4.600;2023-03-14T04:01:06;98937.31;;;14.96;71.67
75006;BME280;63553;51.814;4.600;2023-03-14T04:03:34;98927.31;;;14.95;71.52
75006;BME280;63553;51.814;4.600;2023-03-14T04:06:07;98935.31;;;14.93;71.33
75006;BME280;63553;51.814;4.600;2023-03-14T04:08:32;98927.28;;;14.88;71.58
75006;BME280;63553;51.814;4.600;2023-03-14T04:10:59;98932.50;;;14.90;71.51
75006;BME280;63553;51.814;4.600;2023-03-14T04:13:26;98931.31;;;14.87;71.35
75006;BME280;63553;51.814;4.600;2023-03-14T04:15:52;98930.47;;;14.83;71.35
75006;BME280;63553;51.814;4.600;2023-03-14T04:18:17;98930.88;;;14.82;71.30
75006;BME280;63553;51.814;4.600;2023-03-14T04:20:43;98927.28;;;14.81;71.17
75006;BME280;63553;51.814;4.600;2023-03-14T04:23:09;98925.28;;;14.82;71.04
75006;BME280;63553;51.814;4.600;2023-03-14T04:25:34;98927.69;;;14.80;71.18
75006;BME280;63553;51.814;4.600;2023-03-14T04:28:00;98924.06;;;14.79;71.29
75006;BME280;63553;51.814;4.600;2023-03-14T04:30:26;98933.69;;;14.78;71.14
75006;BME280;63553;51.814;4.600;2023-03-14T04:32:51;98922.06;;;14.76;71.10
75006;BME280;63553;51.814;4.600;2023-03-14T04:35:16;98916.47;;;14.76;71.27
75006;BME280;63553;51.814;4.600;2023-03-14T04:37:42;98922.06;;;14.76;71.20
75006;BME280;63553;51.814;4.600;2023-03-14T04:40:09;98913.28;;;14.74;70.80
75006;BME280;63553;51.814;4.600;2023-03-14T04:42:34;98914.47;;;14.73;70.88
75006;BME280;63553;51.814;4.600;2023-03-14T04:45:00;98912.88;;;14.72;70.90
75006;BME280;63553;51.814;4.600;2023-03-14T04:47:26;98918.47;;;14.72;70.88
75006;BME280;63553;51.814;4.600;2023-03-14T04:49:51;98911.69;;;14.70;71.04
75006;BME280;63553;51.814;4.600;2023-03-14T04:52:17;98915.25;;;14.70;70.90
75006;BME280;63553;51.814;4.600;2023-03-14T04:54:42;98917.28;;;14.70;70.91
75006;BME280;63553;51.814;4.600;2023-03-14T04:57:07;98914.50;;;14.70;71.04
75006;BME280;63553;51.814;4.600;2023-03-14T04:59:33;98908.88;;;14.70;70.91
75006;BME280;63553;51.814;4.600;2023-03-14T05:01:58;98915.66;;;14.69;71.02
75006;BME280;63553;51.814;4.600;2023-03-14T05:04:23;98916.47;;;14.69;70.96
75006;BME280;63553;51.814;4.600;2023-03-14T05:06:49;98898.50;;;14.67;70.85
75006;BME280;63553;51.814;4.600;2023-03-14T05:09:14;98892.09;;;14.66;70.95
75006;BME280;63553;51.814;4.600;2023-03-14T05:11:40;98894.09;;;14.66;70.89
75006;BME280;63553;51.814;4.600;2023-03-14T05:14:05;98902.47;;;14.66;71.26
75006;BME280;63553;51.814;4.600;2023-03-14T05:16:31;98906.88;;;14.67;71.04
75006;BME280;63553;51.814;4.600;2023-03-14T05:18:56;98906.06;;;14.63;70.96
75006;BME280;63553;51.814;4.600;2023-03-14T05:21:21;98913.66;;;14.66;71.16
75006;BME280;63553;51.814;4.600;2023-03-14T05:23:47;98906.88;;;14.67;71.14
75006;BME280;63553;51.814;4.600;2023-03-14T05:26:13;98905.69;;;14.71;73.34
75006;BME280;63553;51.814;4.600;2023-03-14T05:28:38;98902.09;;;14.78;72.99
75006;BME280;63553;51.814;4.600;2023-03-14T05:31:08;98908.50;;;14.89;74.71
75006;BME280;63553;51.814;4.600;2023-03-14T05:33:33;98901.31;;;14.91;73.96
75006;BME280;63553;51.814;4.600;2023-03-14T05:35:59;98894.53;;;14.92;72.51
75006;BME280;63553;51.814;4.600;2023-03-14T05:38:24;98895.34;;;14.96;74.00
75006;BME280;63553;51.814;4.600;2023-03-14T05:40:49;98894.94;;;14.98;74.69
75006;BME280;63553;51.814;4.600;2023-03-14T05:43:15;98894.13;;;15.01;74.05
75006;BME280;63553;51.814;4.600;2023-03-14T05:45:42;98903.72;;;15.03;73.14
75006;BME280;63553;51.814;4.600;2023-03-14T05:48:07;98909.31;;;15.03;73.12
75006;BME280;63553;51.814;4.600;2023-03-14T05:50:33;98909.31;;;15.00;73.00
75006;BME280;63553;51.814;4.600;2023-03-14T05:52:58;98923.72;;;14.98;73.20
75006;BME280;63553;51.814;4.600;2023-03-14T05:55:24;98940.91;;;14.93;73.06
75006;BME280;63553;51.814;4.600;2023-03-14T05:57:49;98962.47;;;14.89;73.01
75006;BME280;63553;51.814;4.600;2023-03-14T06:00:15;98982.06;;;14.86;72.80
75006;BME280;63553;51.814;4.600;2023-03-14T06:02:40;98980.84;;;14.83;72.95
75006;BME280;63553;51.814;4.600;2023-03-14T06:05:06;99001.25;;;14.84;72.63
75006;BME280;63553;51.814;4.600;2023-03-14T06:07:32;99007.22;;;14.82;72.62
75006;BME280;63553;51.814;4.600;2023-03-14T06:09:57;99022.41;;;14.78;72.53
75006;BME280;63553;51.814;4.600;2023-03-14T06:12:24;99025.59;;;14.80;72.53
75006;BME280;63553;51.814;4.600;2023-03-14T06:14:49;99030.78;;;14.78;72.24
75006;BME280;63553;51.814;4.600;2023-03-14T06:17:15;99042.38;;;14.76;72.49
75006;BME280;63553;51.814;4.600;2023-03-14T06:19:41;99048.38;;;14.78;72.38
75006;BME280;63553;51.814;4.600;2023-03-14T06:22:06;99051.16;;;14.75;72.19
75006;BME280;63553;51.814;4.600;2023-03-14T06:24:31;99052.75;;;14.72;72.44
75006;BME280;63553;51.814;4.600;2023-03-14T06:26:57;99051.16;;;14.71;72.37
75006;BME280;63553;51.814;4.600;2023-03-14T06:29:22;99063.94;;;14.72;72.38
75006;BME280;63553;51.814;4.600;2023-03-14T06:31:47;99079.13;;;14.71;72.27
75006;BME280;63553;51.814;4.600;2023-03-14T06:34:13;99077.50;;;14.70;72.17
75006;BME280;63553;51.814;4.600;2023-03-14T06:36:39;99084.69;;;14.68;72.17
75006;BME280;63553;51.814;4.600;2023-03-14T06:39:04;99089.09;;;14.65;72.19
75006;BME280;63553;51.814;4.600;2023-03-14T06:41:29;99095.84;;;14.64;72.22
75006;BME280;63553;51.814;4.600;2023-03-14T06:43:55;99110.28;;;14.66;72.14
75006;BME280;63553;51.814;4.600;2023-03-14T06:46:20;99112.66;;;14.64;72.30
75006;BME280;63553;51.814;4.600;2023-03-14T06:48:45;99120.59;;;14.59;72.25
75006;BME280;63553;51.814;4.600;2023-03-14T06:51:11;99131.00;;;14.55;72.12
75006;BME280;63553;51.814;4.600;2023-03-14T06:53:36;99147.00;;;14.58;71.97
75006;BME280;63553;51.814;4.600;2023-03-14T06:56:02;99147.78;;;14.58;71.97
75006;BME280;63553;51.814;4.600;2023-03-14T06:58:27;99166.13;;;14.56;71.91
75006;BME280;63553;51.814;4.600;2023-03-14T07:00:53;99177.31;;;14.56;71.91
75006;BME280;63553;51.814;4.600;2023-03-14T07:03:19;99181.72;;;14.53;71.80
75006;BME280;63553;51.814;4.600;2023-03-14T07:05:45;99192.09;;;14.53;71.72
75006;BME280;63553;51.814;4.600;2023-03-14T07:08:10;99195.66;;;14.50;71.78
75006;BME280;63553;51.814;4.600;2023-03-14T07:10:36;99207.28;;;14.52;71.70
75006;BME280;63553;51.814;4.600;2023-03-14T07:13:01;99219.28;;;14.56;71.84
75006;BME280;63553;51.814;4.600;2023-03-14T07:15:26;99224.53;;;14.61;72.53
75006;BME280;63553;51.814;4.600;2023-03-14T07:17:52;99231.00;;;14.72;73.12
75006;BME280;63553;51.814;4.600;2023-03-14T07:20:17;99243.88;;;14.83;73.05
75006;BME280;63553;51.814;4.600;2023-03-14T07:22:42;99244.34;;;14.92;73.38
75006;BME280;63553;51.814;4.600;2023-03-14T07:25:08;99247.81;;;14.79;73.72
75006;BME280;63553;51.814;4.600;2023-03-14T07:27:37;99262.19;;;13.93;78.05
75006;BME280;63553;51.814;4.600;2023-03-14T07:30:03;99277.72;;;14.68;73.85
75006;BME280;63553;51.814;4.600;2023-03-14T07:32:28;99272.25;;;14.85;72.97
75006;BME280;63553;51.814;4.600;2023-03-14T07:34:54;99290.56;;;14.72;81.67
75006;BME280;63553;51.814;4.600;2023-03-14T07:37:19;99298.06;;;14.65;73.41
75006;BME280;63553;51.814;4.600;2023-03-14T07:39:44;99301.22;;;15.11;76.24
75006;BME280;63553;51.814;4.600;2023-03-14T07:42:10;99304.94;;;15.29;72.80
75006;BME280;63553;51.814;4.600;2023-03-14T07:44:36;99322.63;;;14.85;73.88
75006;BME280;63553;51.814;4.600;2023-03-14T07:47:01;99321.34;;;13.99;72.90
75006;BME280;63553;51.814;4.600;2023-03-14T07:49:27;99334.59;;;14.38;76.84
75006;BME280;63553;51.814;4.600;2023-03-14T07:51:52;99353.34;;;14.05;75.65
75006;BME280;63553;51.814;4.600;2023-03-14T07:54:17;99350.13;;;13.69;71.90
75006;BME280;63553;51.814;4.600;2023-03-14T07:56:43;99352.38;;;13.60;73.75
75006;BME280;63553;51.814;4.600;2023-03-14T07:59:08;99359.69;;;13.68;76.79
75006;BME280;63553;51.814;4.600;2023-03-14T08:01:34;99377.22;;;13.99;75.40
75006;BME280;63553;51.814;4.600;2023-03-14T08:03:59;99384.38;;;14.29;73.23
75006;BME280;63553;51.814;4.600;2023-03-14T08:06:24;99392.47;;;14.05;70.63
75006;BME280;63553;51.814;4.600;2023-03-14T08:08:50;99397.00;;;14.13;72.52
75006;BME280;63553;51.814;4.600;2023-03-14T08:11:15;99405.19;;;13.69;70.39
75006;BME280;63553;51.814;4.600;2023-03-14T08:13:41;99419.47;;;13.64;70.70
75006;BME280;63553;51.814;4.600;2023-03-14T08:16:06;99426.75;;;13.42;69.50
75006;BME280;63553;51.814;4.600;2023-03-14T08:18:32;99444.25;;;13.65;71.92
75006;BME280;63553;51.814;4.600;2023-03-14T08:20:57;99460.81;;;13.06;68.25
75006;BME280;63553;51.814;4.600;2023-03-14T08:23:23;99463.94;;;13.04;68.64
75006;BME280;63553;51.814;4.600;2023-03-14T08:25:49;99479.88;;;13.23;70.01
75006;BME280;63553;51.814;4.600;2023-03-14T08:28:15;99493.59;;;12.29;72.01
75006;BME280;63553;51.814;4.600;2023-03-14T08:30:41;99506.47;;;12.98;74.58
75006;BME280;63553;51.814;4.600;2023-03-14T08:33:06;99523.16;;;11.98;69.95
75006;BME280;63553;51.814;4.600;2023-03-14T08:35:31;99531.78;;;12.47;74.37
75006;BME280;63553;51.814;4.600;2023-03-14T08:37:57;99554.53;;;11.64;73.87
75006;BME280;63553;51.814;4.600;2023-03-14T08:40:22;99562.66;;;11.85;72.33
75006;BME280;63553;51.814;4.600;2023-03-14T08:42:47;99572.81;;;12.66;72.77
75006;BME280;63553;51.814;4.600;2023-03-14T08:45:14;99593.22;;;11.38;70.05
75006;BME280;63553;51.814;4.600;2023-03-14T08:47:41;99588.44;;;11.07;71.81
75006;BME280;63553;51.814;4.600;2023-03-14T08:50:08;99605.38;;;11.45;73.76
75006;BME280;63553;51.814;4.600;2023-03-14T08:52:34;99625.41;;;11.98;69.42
75006;BME280;63553;51.814;4.600;2023-03-14T08:55:00;99629.75;;;10.65;67.14
75006;BME280;63553;51.814;4.600;2023-03-14T08:57:26;99655.38;;;10.58;70.48
75006;BME280;63553;51.814;4.600;2023-03-14T08:59:55;99657.78;;;10.60;77.90
75006;BME280;63553;51.814;4.600;2023-03-14T09:02:21;99664.59;;;9.54;73.22
75006;BME280;63553;51.814;4.600;2023-03-14T09:04:47;99679.78;;;9.23;74.17
75006;BME280;63553;51.814;4.600;2023-03-14T09:07:12;99689.16;;;9.76;80.73
75006;BME280;63553;51.814;4.600;2023-03-14T09:09:38;99691.19;;;10.88;74.48
75006;BME280;63553;51.814;4.600;2023-03-14T09:12:03;99713.88;;;9.69;74.74
75006;BME280;63553;51.814;4.600;2023-03-14T09:14:29;99718.78;;;9.96;73.39
75006;BME280;63553;51.814;4.600;2023-03-14T09:16:55;99731.19;;;10.11;74.34
75006;BME280;63553;51.814;4.600;2023-03-14T09:19:20;99736.56;;;11.04;76.99
75006;BME280;63553;51.814;4.600;2023-03-14T09:21:45;99752.25;;;10.84;75.17
75006;BME280;63553;51.814;4.600;2023-03-14T09:24:11;99753.47;;;10.59;67.62
75006;BME280;63553;51.814;4.600;2023-03-14T09:26:36;99756.34;;;10.63;67.85
75006;BME280;63553;51.814;4.600;2023-03-14T09:29:02;99770.25;;;10.63;68.16
75006;BME280;63553;51.814;4.600;2023-03-14T09:31:27;99786.91;;;10.14;67.57
75006;BME280;63553;51.814;4.600;2023-03-14T09:33:53;99789.47;;;10.55;73.55
75006;BME280;63553;51.814;4.600;2023-03-14T09:36:19;99790.28;;;11.20;67.52
75006;BME280;63553;51.814;4.600;2023-03-14T09:38:44;99811.97;;;11.66;71.13
75006;BME280;63553;51.814;4.600;2023-03-14T09:41:18;99809.28;;;11.70;65.06
75006;BME280;63553;51.814;4.600;2023-03-14T09:43:47;99816.56;;;12.80;70.51
75006;BME280;63553;51.814;4.600;2023-03-14T09:46:16;99822.09;;;11.19;64.05
75006;BME280;63553;51.814;4.600;2023-03-14T09:48:41;99840.75;;;11.19;64.30
75006;BME280;63553;51.814;4.600;2023-03-14T09:51:14;99860.09;;;12.22;70.29
75006;BME280;63553;51.814;4.600;2023-03-14T09:53:42;99861.59;;;11.77;69.21
75006;BME280;63553;51.814;4.600;2023-03-14T09:56:14;99864.66;;;11.59;65.77
75006;BME280;63553;51.814;4.600;2023-03-14T09:58:44;99879.59;;;10.79;65.41
75006;BME280;63553;51.814;4.600;2023-03-14T10:01:14;99891.34;;;10.39;66.97
75006;BME280;63553;51.814;4.600;2023-03-14T10:03:40;99905.19;;;10.15;66.54
75006;BME280;63553;51.814;4.600;2023-03-14T10:06:11;99917.03;;;10.24;69.24
75006;BME280;63553;51.814;4.600;2023-03-14T10:08:43;99927.69;;;11.40;70.60
75006;BME280;63553;51.814;4.600;2023-03-14T10:11:17;99946.34;;;11.27;69.18
75006;BME280;63553;51.814;4.600;2023-03-14T10:14:02;99963.97;;;10.50;66.85
75006;BME280;63553;51.814;4.600;2023-03-14T10:16:42;99971.75;;;11.01;65.67
75006;BME280;63553;51.814;4.600;2023-03-14T10:19:14;99976.28;;;10.28;70.85
75006;BME280;63553;51.814;4.600;2023-03-14T10:21:42;99986.50;;;9.74;69.54
75006;BME280;63553;51.814;4.600;2023-03-14T10:24:34;100004.72;;;9.84;67.88
75006;BME280;63553;51.814;4.600;2023-03-14T10:27:06;100015.84;;;9.84;68.98
75006;BME280;63553;51.814;4.600;2023-03-14T10:30:00;100020.00;;;10.85;67.64
75006;BME280;63553;51.814;4.600;2023-03-14T10:32:34;100031.28;;;9.93;66.91
75006;BME280;63553;51.814;4.600;2023-03-14T10:35:21;100040.53;;;10.47;67.44
75006;BME280;63553;51.814;4.600;2023-03-14T10:37:54;100052.00;;;10.91;70.14
75006;BME280;63553;51.814;4.600;2023-03-14T10:40:34;100067.91;;;11.72;72.93
75006;BME280;63553;51.814;4.600;2023-03-14T10:43:05;100071.84;;;11.70;69.21
75006;BME280;63553;51.814;4.600;2023-03-14T10:45:32;100081.72;;;11.80;70.86
75006;BME280;63553;51.814;4.600;2023-03-14T10:48:25;100080.53;;;11.45;65.62
75006;BME280;63553;51.814;4.600;2023-03-14T10:53:48;100105.13;;;12.27;67.66
75006;BME280;63553;51.814;4.600;2023-03-14T10:56:18;100088.16;;;12.20;68.89
75006;BME280;63553;51.814;4.600;2023-03-14T10:58:48;100135.97;;;11.50;62.16
75006;BME280;63553;51.814;4.600;2023-03-14T11:01:32;100138.00;;;12.22;66.83
75006;BME280;63553;51.814;4.600;2023-03-14T11:07:27;100162.53;;;11.47;63.68
75006;BME280;63553;51.814;4.600;2023-03-14T11:10:11;100161.69;;;12.16;64.69
75006;BME280;63553;51.814;4.600;2023-03-14T11:20:54;100186.41;;;11.81;66.25
75006;BME280;63553;51.814;4.600;2023-03-14T11:32:07;100223.44;;;11.82;62.30
75006;BME280;63553;51.814;4.600;2023-03-14T11:34:51;100222.38;;;13.23;65.15
75006;BME280;63553;51.814;4.600;2023-03-14T11:37:32;100229.97;;;12.98;55.67
75006;BME280;63553;51.814;4.600;2023-03-14T11:40:13;100250.28;;;12.22;53.36
75006;BME280;63553;51.814;4.600;2023-03-14T11:42:42;100246.91;;;12.05;57.38
75006;BME280;63553;51.814;4.600;2023-03-14T11:45:21;100258.06;;;12.41;60.42
75006;BME280;63553;51.814;4.600;2023-03-14T11:47:55;100261.66;;;12.66;60.68
75006;BME280;63553;51.814;4.600;2023-03-14T11:50:24;100268.03;;;12.78;61.43
75006;BME280;63553;51.814;4.600;2023-03-14T11:53:09;100280.59;;;12.48;55.80
75006;BME280;63553;51.814;4.600;2023-03-14T11:55:37;100285.66;;;12.95;58.89
75006;BME280;63553;51.814;4.600;2023-03-14T11:58:25;100273.09;;;13.13;59.63
75006;BME280;63553;51.814;4.600;2023-03-14T12:00:56;100293.97;;;12.67;54.25
75006;BME280;63553;51.814;4.600;2023-03-14T12:06:28;100306.19;;;13.39;57.05
75006;BME280;63553;51.814;4.600;2023-03-14T12:09:02;100300.00;;;13.73;59.70
75006;BME280;63553;51.814;4.600;2023-03-14T12:14:21;100326.88;;;13.77;49.81
75006;BME280;63553;51.814;4.600;2023-03-14T12:16:48;100320.41;;;13.61;55.37
75006;BME280;63553;51.814;4.600;2023-03-14T12:21:56;100332.00;;;13.48;54.89
75006;BME280;63553;51.814;4.600;2023-03-14T12:24:26;100339.66;;;13.78;53.63
75006;BME280;63553;51.814;4.600;2023-03-14T12:26:57;100346.59;;;13.69;47.75
75006;BME280;63553;51.814;4.600;2023-03-14T12:29:24;100342.88;;;13.13;51.97
75006;BME280;63553;51.814;4.600;2023-03-14T12:32:07;100350.75;;;13.35;52.90
75006;BME280;63553;51.814;4.600;2023-03-14T12:34:36;100353.19;;;13.36;53.68
75006;BME280;63553;51.814;4.600;2023-03-14T12:37:24;100362.88;;;12.66;51.71
75006;BME280;63553;51.814;4.600;2023-03-14T12:47:52;100389.72;;;13.44;54.36
75006;BME280;63553;51.814;4.600;2023-03-14T12:50:23;100394.03;;;13.05;47.77
75006;BME280;63553;51.814;4.600;2023-03-14T12:53:00;100398.09;;;13.44;51.70
75006;BME280;63553;51.814;4.600;2023-03-14T12:55:36;100392.81;;;13.94;53.37
75006;BME280;63553;51.814;4.600;2023-03-14T12:58:29;100404.97;;;14.14;54.97
75006;BME280;63553;51.814;4.600;2023-03-14T13:00:59;100416.59;;;13.88;51.74
75006;BME280;63553;51.814;4.600;2023-03-14T13:03:37;100434.44;;;14.11;55.74
75006;BME280;63553;51.814;4.600;2023-03-14T13:06:04;100437.53;;;12.81;44.38
75006;BME280;63553;51.814;4.600;2023-03-14T13:08:37;100441.16;;;12.37;46.81
75006;BME280;63553;51.814;4.600;2023-03-14T13:14:00;100467.97;;;12.87;54.14
75006;BME280;63553;51.814;4.600;2023-03-14T13:16:27;100469.88;;;13.19;49.27
75006;BME280;63553;51.814;4.600;2023-03-14T13:19:04;100480.78;;;13.72;55.66
75006;BME280;63553;51.814;4.600;2023-03-14T13:21:37;100480.09;;;13.63;53.95
75006;BME280;63553;51.814;4.600;2023-03-14T13:24:05;100496.97;;;12.94;55.06
75006;BME280;63553;51.814;4.600;2023-03-14T13:26:36;100504.16;;;13.07;55.76
75006;BME280;63553;51.814;4.600;2023-03-14T13:29:14;100504.78;;;13.49;56.36
75006;BME280;63553;51.814;4.600;2023-03-14T13:31:44;100503.41;;;13.55;55.38
75006;BME280;63553;51.814;4.600;2023-03-14T13:34:10;100529.72;;;13.30;49.34
75006;BME280;63553;51.814;4.600;2023-03-14T13:36:36;100528.97;;;12.64;45.12
75006;BME280;63553;51.814;4.600;2023-03-14T13:39:02;100531.78;;;13.21;52.85
75006;BME280;63553;51.814;4.600;2023-03-14T13:41:30;100537.56;;;12.59;51.16
75006;BME280;63553;51.814;4.600;2023-03-14T13:44:02;100543.84;;;12.35;45.11
75006;BME280;63553;51.814;4.600;2023-03-14T13:46:29;100545.38;;;12.03;49.38
75006;BME280;63553;51.814;4.600;2023-03-14T13:48:56;100559.63;;;12.64;50.79
75006;BME280;63553;51.814;4.600;2023-03-14T13:51:22;100556.25;;;12.91;52.35